createdAt,value
2018-09-01T00:00:10.083Z,0
2018-09-01T00:01:19.380Z,0
2018-09-01T00:02:28.949Z,0
2018-09-01T00:03:38.518Z,0
2018-09-01T00:04:48.359Z,0
2018-09-01T00:05:57.923Z,0
2018-09-01T00:07:08.045Z,0
2018-09-01T00:08:17.608Z,0
2018-09-01T00:09:27.455Z,0
2018-09-01T00:10:37.290Z,0
2018-09-01T00:11:46.590Z,0
2018-09-01T00:12:56.431Z,0
2018-09-01T00:14:05.190Z,0
2018-09-01T00:15:15.296Z,0
2018-09-01T00:16:24.325Z,0
2018-09-01T00:17:33.893Z,0
2018-09-01T00:18:43.995Z,0
2018-09-01T00:19:53.830Z,0
2018-09-01T00:21:03.125Z,0
2018-09-01T00:22:12.967Z,0
2018-09-01T00:23:23.083Z,0
2018-09-01T00:24:32.924Z,0
2018-09-01T00:25:42.772Z,0
2018-09-01T00:26:52.876Z,0
2018-09-01T00:28:02.494Z,0
2018-09-01T00:29:12.344Z,0
2018-09-01T00:30:21.928Z,0
2018-09-01T00:31:30.957Z,0
2018-09-01T00:32:41.068Z,0
2018-09-01T00:33:50.911Z,0
2018-09-01T00:35:00.757Z,0
2018-09-01T00:36:10.870Z,0
2018-09-01T00:37:20.768Z,0
2018-09-01T00:38:30.333Z,0
2018-09-01T00:39:40.450Z,0
2018-09-01T00:40:50.294Z,0
2018-09-01T00:42:00.138Z,0
2018-09-01T00:43:09.715Z,0
2018-09-01T00:44:19.548Z,0
2018-09-01T00:45:28.850Z,0
2018-09-01T00:46:38.147Z,0
2018-09-01T00:47:47.718Z,0
2018-09-01T00:48:57.555Z,0
2018-09-01T00:50:07.125Z,0
2018-09-01T00:51:16.967Z,0
2018-09-01T00:52:26.304Z,0
2018-09-01T00:53:36.140Z,0
2018-09-01T00:54:45.454Z,0
2018-09-01T00:55:55.032Z,0
2018-09-01T00:57:04.871Z,0
2018-09-01T00:58:14.709Z,0
2018-09-01T00:59:24.278Z,0
2018-09-01T01:00:34.383Z,0
2018-09-01T01:01:43.679Z,0
2018-09-01T01:02:53.521Z,0
2018-09-01T01:04:03.364Z,0
2018-09-01T01:05:12.673Z,0
2018-09-01T01:06:22.250Z,0
2018-09-01T01:07:32.356Z,0
2018-09-01T01:08:42.202Z,0
2018-09-01T01:09:51.767Z,0
2018-09-01T01:11:01.070Z,0
2018-09-01T01:12:10.909Z,0
2018-09-01T01:13:20.748Z,0
2018-09-01T01:14:30.322Z,0
2018-09-01T01:15:39.901Z,0
2018-09-01T01:16:49.469Z,0
2018-09-01T01:17:59.051Z,0
2018-09-01T01:19:08.622Z,0
2018-09-01T01:20:18.465Z,0
2018-09-01T01:21:28.037Z,0
2018-09-01T01:22:37.611Z,0
2018-09-01T01:23:47.449Z,0
2018-09-01T01:24:57.289Z,0
2018-09-01T01:26:07.403Z,0
2018-09-01T01:27:17.241Z,0
2018-09-01T01:28:26.816Z,0
2018-09-01T01:29:36.114Z,0
2018-09-01T01:30:45.686Z,0
2018-09-01T01:31:55.261Z,0
2018-09-01T01:33:04.825Z,0
2018-09-01T01:34:14.931Z,0
2018-09-01T01:35:24.773Z,0
2018-09-01T01:36:34.340Z,0
2018-09-01T01:37:43.908Z,0
2018-09-01T01:38:54.012Z,0
2018-09-01T01:40:03.582Z,0
2018-09-01T01:41:12.883Z,0
2018-09-01T01:42:22.996Z,0
2018-09-01T01:43:32.023Z,0
2018-09-01T01:44:41.590Z,0
2018-09-01T01:45:51.697Z,0
2018-09-01T01:47:01.543Z,0
2018-09-01T01:48:10.842Z,0
2018-09-01T01:49:21.006Z,0
2018-09-01T01:50:30.308Z,0
2018-09-01T01:51:39.875Z,0
2018-09-01T01:52:49.717Z,0
2018-09-01T01:53:59.288Z,0
2018-09-01T01:55:08.592Z,0
2018-09-01T01:56:18.166Z,0
2018-09-01T01:57:28.015Z,0
2018-09-01T01:58:37.579Z,0
2018-09-01T01:59:47.423Z,0
2018-09-01T02:00:57.257Z,0
2018-09-01T02:02:06.826Z,0
2018-09-01T02:03:16.399Z,0
2018-09-01T02:04:26.236Z,0
2018-09-01T02:05:36.352Z,0
2018-09-01T02:06:46.479Z,0
2018-09-01T02:07:56.597Z,0
2018-09-01T02:09:06.163Z,0
2018-09-01T02:10:15.740Z,0
2018-09-01T02:11:25.323Z,0
2018-09-01T02:12:34.623Z,0
2018-09-01T02:13:44.467Z,0
2018-09-01T02:14:54.584Z,0
2018-09-01T02:16:04.438Z,0
2018-09-01T02:17:14.284Z,0
2018-09-01T02:18:24.125Z,0
2018-09-01T02:19:33.159Z,0
2018-09-01T02:20:43.270Z,0
2018-09-01T02:21:53.115Z,0
2018-09-01T02:23:02.692Z,0
2018-09-01T02:24:12.536Z,0
2018-09-01T02:25:22.113Z,0
2018-09-01T02:26:32.223Z,0
2018-09-01T02:27:42.327Z,0
2018-09-01T02:28:51.896Z,0
2018-09-01T02:30:01.729Z,0
2018-09-01T02:31:11.310Z,0
2018-09-01T02:32:21.153Z,0
2018-09-01T02:33:31.267Z,0
2018-09-01T02:34:40.844Z,0
2018-09-01T02:35:50.708Z,0
2018-09-01T02:37:00.553Z,0
2018-09-01T02:38:10.665Z,0
2018-09-01T02:39:20.511Z,0
2018-09-01T02:40:29.547Z,0
2018-09-01T02:41:39.666Z,0
2018-09-01T02:42:49.522Z,0
2018-09-01T02:43:59.085Z,0
2018-09-01T02:45:08.669Z,0
2018-09-01T02:46:18.798Z,0
2018-09-01T02:47:28.156Z,0
2018-09-01T02:48:37.730Z,0
2018-09-01T02:49:47.299Z,0
2018-09-01T02:50:56.598Z,0
2018-09-01T02:52:06.171Z,0
2018-09-01T02:53:15.755Z,0
2018-09-01T02:54:25.337Z,0
2018-09-01T02:55:35.460Z,0
2018-09-01T02:56:45.036Z,0
2018-09-01T02:57:54.616Z,0
2018-09-01T02:59:03.987Z,0
2018-09-01T03:00:13.837Z,0
2018-09-01T03:01:23.406Z,0
2018-09-01T03:02:33.241Z,0
2018-09-01T03:03:42.816Z,0
2018-09-01T03:04:52.648Z,0
2018-09-01T03:06:02.759Z,0
2018-09-01T03:07:12.615Z,0
2018-09-01T03:08:22.459Z,0
2018-09-01T03:09:32.036Z,0
2018-09-01T03:10:41.649Z,0
2018-09-01T03:11:50.954Z,0
2018-09-01T03:13:00.791Z,0
2018-09-01T03:14:10.359Z,0
2018-09-01T03:15:19.930Z,0
2018-09-01T03:16:29.769Z,0
2018-09-01T03:17:39.881Z,0
2018-09-01T03:18:49.177Z,0
2018-09-01T03:19:58.762Z,0
2018-09-01T03:21:08.869Z,0
2018-09-01T03:22:19.034Z,0
2018-09-01T03:23:29.145Z,0
2018-09-01T03:24:38.986Z,0
2018-09-01T03:25:48.284Z,0
2018-09-01T03:26:57.878Z,0
2018-09-01T03:28:08.066Z,0
2018-09-01T03:29:17.903Z,0
2018-09-01T03:30:28.162Z,0
2018-09-01T03:31:37.748Z,0
2018-09-01T03:32:47.857Z,0
2018-09-01T03:33:57.426Z,0
2018-09-01T03:35:06.996Z,0
2018-09-01T03:36:16.838Z,0
2018-09-01T03:37:26.675Z,0
2018-09-01T03:38:36.791Z,0
2018-09-01T03:39:46.374Z,0
2018-09-01T03:40:55.678Z,0
2018-09-01T03:42:05.519Z,0
2018-09-01T03:43:15.369Z,0
2018-09-01T03:44:25.215Z,0
2018-09-01T03:45:34.796Z,0
2018-09-01T03:46:44.642Z,0
2018-09-01T03:47:54.214Z,0
2018-09-01T03:49:03.792Z,0
2018-09-01T03:50:13.647Z,0
2018-09-01T03:51:23.215Z,0
2018-09-01T03:52:33.330Z,0
2018-09-01T03:53:43.441Z,0
2018-09-01T03:54:53.280Z,0
2018-09-01T03:56:02.850Z,0
2018-09-01T03:57:12.712Z,0
2018-09-01T03:58:22.019Z,0
2018-09-01T03:59:30.777Z,0
2018-09-01T04:00:40.075Z,0
2018-09-01T04:01:49.920Z,0
2018-09-01T04:02:59.756Z,0
2018-09-01T04:04:09.063Z,0
2018-09-01T04:05:18.644Z,0
2018-09-01T04:06:28.751Z,0
2018-09-01T04:07:38.868Z,0
2018-09-01T04:08:48.713Z,0
2018-09-01T04:09:58.853Z,0
2018-09-01T04:11:08.749Z,0
2018-09-01T04:12:18.591Z,0
2018-09-01T04:13:28.428Z,0
2018-09-01T04:14:38.267Z,0
2018-09-01T04:15:48.389Z,0
2018-09-01T04:16:57.963Z,0
2018-09-01T04:18:08.077Z,0
2018-09-01T04:19:17.930Z,0
2018-09-01T04:20:27.769Z,0
2018-09-01T04:21:37.072Z,0
2018-09-01T04:22:46.637Z,0
2018-09-01T04:23:55.939Z,0
2018-09-01T04:25:05.798Z,0
2018-09-01T04:26:15.635Z,0
2018-09-01T04:27:25.206Z,0
2018-09-01T04:28:35.056Z,0
2018-09-01T04:29:44.897Z,5
2018-09-01T04:30:54.201Z,5
2018-09-01T04:32:04.650Z,5
2018-09-01T04:33:14.579Z,5
2018-09-01T04:34:24.696Z,5
2018-09-01T04:35:34.546Z,5
2018-09-01T04:36:44.121Z,10
2018-09-01T04:37:53.697Z,10
2018-09-01T04:39:03.262Z,10
2018-09-01T04:40:12.297Z,10
2018-09-01T04:41:22.127Z,15
2018-09-01T04:42:31.973Z,15
2018-09-01T04:43:41.558Z,15
2018-09-01T04:44:51.407Z,15
2018-09-01T04:46:00.709Z,20
2018-09-01T04:47:10.853Z,20
2018-09-01T04:48:20.721Z,20
2018-09-01T04:49:30.338Z,20
2018-09-01T04:50:40.447Z,25
2018-09-01T04:51:50.562Z,25
2018-09-01T04:53:00.679Z,25
2018-09-01T04:54:10.519Z,30
2018-09-01T04:55:20.680Z,30
2018-09-01T04:56:30.789Z,30
2018-09-01T04:57:40.358Z,30
2018-09-01T04:58:49.931Z,35
2018-09-01T05:00:00.047Z,35
2018-09-01T05:01:10.797Z,35
2018-09-01T05:02:21.092Z,35
2018-09-01T05:03:30.931Z,40
2018-09-01T05:04:40.497Z,40
2018-09-01T05:05:50.609Z,45
2018-09-01T05:07:00.179Z,45
2018-09-01T05:08:10.289Z,45
2018-09-01T05:09:20.132Z,50
2018-09-01T05:10:29.983Z,50
2018-09-01T05:11:39.013Z,55
2018-09-01T05:12:48.852Z,55
2018-09-01T05:13:58.701Z,60
2018-09-01T05:15:08.272Z,60
2018-09-01T05:16:17.843Z,60
2018-09-01T05:17:27.687Z,60
2018-09-01T05:18:36.987Z,60
2018-09-01T05:19:46.282Z,60
2018-09-01T05:20:56.441Z,65
2018-09-01T05:22:06.556Z,65
2018-09-01T05:23:16.672Z,65
2018-09-01T05:24:26.517Z,65
2018-09-01T05:25:36.638Z,70
2018-09-01T05:26:45.937Z,70
2018-09-01T05:27:55.789Z,70
2018-09-01T05:29:05.634Z,70
2018-09-01T05:30:15.757Z,70
2018-09-01T05:31:25.328Z,75
2018-09-01T05:32:35.224Z,75
2018-09-01T05:33:44.812Z,75
2018-09-01T05:34:54.113Z,75
2018-09-01T05:36:03.710Z,75
2018-09-01T05:37:13.819Z,80
2018-09-01T05:38:23.666Z,80
2018-09-01T05:39:33.509Z,80
2018-09-01T05:40:43.091Z,85
2018-09-01T05:41:52.671Z,90
2018-09-01T05:43:02.244Z,90
2018-09-01T05:44:11.548Z,100
2018-09-01T05:45:21.168Z,100
2018-09-01T05:46:30.743Z,100
2018-09-01T05:47:40.314Z,105
2018-09-01T05:48:50.430Z,105
2018-09-01T05:49:59.725Z,105
2018-09-01T05:51:09.296Z,110
2018-09-01T05:52:19.147Z,110
2018-09-01T05:53:28.721Z,115
2018-09-01T05:54:38.026Z,110
2018-09-01T05:55:47.861Z,115
2018-09-01T05:56:57.697Z,115
2018-09-01T05:58:06.999Z,115
2018-09-01T05:59:16.916Z,120
2018-09-01T06:00:26.873Z,125
2018-09-01T06:01:36.712Z,130
2018-09-01T06:02:46.274Z,140
2018-09-01T06:03:55.843Z,145
2018-09-01T06:05:05.428Z,150
2018-09-01T06:06:16.516Z,155
2018-09-01T06:07:26.373Z,155
2018-09-01T06:08:36.215Z,160
2018-09-01T06:09:46.055Z,165
2018-09-01T06:10:55.908Z,160
2018-09-01T06:12:05.213Z,160
2018-09-01T06:13:15.342Z,150
2018-09-01T06:14:25.476Z,150
2018-09-01T06:15:35.334Z,150
2018-09-01T06:16:44.902Z,140
2018-09-01T06:17:54.167Z,140
2018-09-01T06:19:03.508Z,135
2018-09-01T06:20:13.407Z,135
2018-09-01T06:21:23.247Z,140
2018-09-01T06:22:32.871Z,140
2018-09-01T06:23:42.715Z,140
2018-09-01T06:24:52.817Z,140
2018-09-01T06:26:02.370Z,140
2018-09-01T06:27:11.936Z,145
2018-09-01T06:28:21.028Z,145
2018-09-01T06:29:30.863Z,150
2018-09-01T06:30:40.974Z,150
2018-09-01T06:31:50.816Z,155
2018-09-01T06:33:01.382Z,150
2018-09-01T06:34:11.214Z,165
2018-09-01T06:35:21.332Z,165
2018-09-01T06:36:31.179Z,170
2018-09-01T06:37:40.965Z,175
2018-09-01T06:38:49.923Z,175
2018-09-01T06:40:00.039Z,165
2018-09-01T06:41:09.620Z,160
2018-09-01T06:42:19.199Z,155
2018-09-01T06:43:29.310Z,155
2018-09-01T06:44:38.610Z,155
2018-09-01T06:45:48.729Z,155
2018-09-01T06:46:58.036Z,155
2018-09-01T06:48:08.155Z,155
2018-09-01T06:49:17.727Z,155
2018-09-01T06:50:27.298Z,155
2018-09-01T06:51:37.629Z,160
2018-09-01T06:52:47.796Z,160
2018-09-01T06:53:57.369Z,160
2018-09-01T06:55:07.476Z,160
2018-09-01T06:56:17.314Z,160
2018-09-01T06:57:26.881Z,160
2018-09-01T06:58:36.457Z,160
2018-09-01T06:59:46.027Z,160
2018-09-01T07:00:56.141Z,165
2018-09-01T07:02:05.986Z,165
2018-09-01T07:03:15.969Z,165
2018-09-01T07:04:25.539Z,165
2018-09-01T07:05:34.845Z,165
2018-09-01T07:06:44.687Z,165
2018-09-01T07:07:54.256Z,165
2018-09-01T07:09:03.991Z,170
2018-09-01T07:10:13.569Z,170
2018-09-01T07:11:23.683Z,170
2018-09-01T07:12:33.534Z,170
2018-09-01T07:13:43.398Z,170
2018-09-01T07:14:53.510Z,170
2018-09-01T07:16:03.618Z,175
2018-09-01T07:17:13.198Z,175
2018-09-01T07:18:22.773Z,175
2018-09-01T07:19:32.339Z,175
2018-09-01T07:20:42.448Z,175
2018-09-01T07:21:52.289Z,175
2018-09-01T07:23:01.871Z,175
2018-09-01T07:24:11.709Z,180
2018-09-01T07:25:21.818Z,180
2018-09-01T07:26:31.666Z,180
2018-09-01T07:27:41.287Z,185
2018-09-01T07:28:50.860Z,195
2018-09-01T07:30:00.441Z,200
2018-09-01T07:31:11.635Z,210
2018-09-01T07:32:21.750Z,230
2018-09-01T07:33:30.777Z,245
2018-09-01T07:34:40.898Z,265
2018-09-01T07:35:50.477Z,275
2018-09-01T07:37:00.333Z,285
2018-09-01T07:38:09.912Z,280
2018-09-01T07:39:20.024Z,280
2018-09-01T07:40:29.880Z,280
2018-09-01T07:41:39.462Z,290
2018-09-01T07:42:48.762Z,285
2018-09-01T07:43:58.389Z,285
2018-09-01T07:45:08.506Z,300
2018-09-01T07:46:18.077Z,290
2018-09-01T07:47:27.921Z,295
2018-09-01T07:48:37.231Z,310
2018-09-01T07:49:47.082Z,300
2018-09-01T07:50:56.661Z,305
2018-09-01T07:52:06.242Z,310
2018-09-01T07:53:16.375Z,305
2018-09-01T07:54:25.955Z,290
2018-09-01T07:55:36.064Z,290
2018-09-01T07:56:45.364Z,285
2018-09-01T07:57:55.486Z,275
2018-09-01T07:59:05.070Z,260
2018-09-01T08:00:14.384Z,245
2018-09-01T08:01:23.960Z,235
2018-09-01T08:02:33.801Z,220
2018-09-01T08:03:43.649Z,210
2018-09-01T08:04:52.955Z,205
2018-09-01T08:06:02.808Z,200
2018-09-01T08:07:12.377Z,205
2018-09-01T08:08:21.414Z,200
2018-09-01T08:09:30.715Z,200
2018-09-01T08:10:40.554Z,200
2018-09-01T08:11:49.858Z,205
2018-09-01T08:12:59.431Z,205
2018-09-01T08:14:10.604Z,205
2018-09-01T08:15:20.065Z,205
2018-09-01T08:16:30.182Z,205
2018-09-01T08:17:40.297Z,200
2018-09-01T08:18:49.873Z,205
2018-09-01T08:19:59.444Z,205
2018-09-01T08:21:08.857Z,205
2018-09-01T08:22:18.719Z,205
2018-09-01T08:23:28.293Z,200
2018-09-01T08:24:38.135Z,220
2018-09-01T08:25:47.712Z,210
2018-09-01T08:26:56.755Z,230
2018-09-01T08:28:06.332Z,230
2018-09-01T08:29:16.172Z,230
2018-09-01T08:30:25.756Z,225
2018-09-01T08:31:35.327Z,215
2018-09-01T08:32:44.907Z,220
2018-09-01T08:33:55.169Z,225
2018-09-01T08:35:05.299Z,240
2018-09-01T08:36:15.410Z,250
2018-09-01T08:37:25.524Z,250
2018-09-01T08:38:34.882Z,270
2018-09-01T08:39:44.998Z,265
2018-09-01T08:40:54.572Z,255
2018-09-01T08:42:04.437Z,245
2018-09-01T08:43:14.019Z,235
2018-09-01T08:44:23.861Z,250
2018-09-01T08:45:34.366Z,275
2018-09-01T08:46:44.488Z,300
2018-09-01T08:47:53.790Z,300
2018-09-01T08:49:03.647Z,325
2018-09-01T08:50:13.500Z,370
2018-09-01T08:51:23.076Z,375
2018-09-01T08:52:32.917Z,380
2018-09-01T08:53:42.487Z,395
2018-09-01T08:54:52.350Z,410
2018-09-01T08:56:02.188Z,420
2018-09-01T08:57:12.034Z,430
2018-09-01T08:58:22.145Z,420
2018-09-01T08:59:31.723Z,400
2018-09-01T09:00:41.029Z,370
2018-09-01T09:01:50.339Z,340
2018-09-01T09:02:59.919Z,330
2018-09-01T09:04:09.772Z,335
2018-09-01T09:05:18.807Z,360
2018-09-01T09:06:28.113Z,365
2018-09-01T09:07:37.694Z,365
2018-09-01T09:08:47.280Z,355
2018-09-01T09:09:56.868Z,335
2018-09-01T09:11:06.711Z,335
2018-09-01T09:12:16.556Z,350
2018-09-01T09:13:26.395Z,345
2018-09-01T09:14:35.971Z,370
2018-09-01T09:15:45.283Z,385
2018-09-01T09:16:55.125Z,395
2018-09-01T09:18:04.971Z,390
2018-09-01T09:19:14.554Z,425
2018-09-01T09:20:23.860Z,415
2018-09-01T09:21:33.437Z,375
2018-09-01T09:22:43.557Z,365
2018-09-01T09:23:53.400Z,380
2018-09-01T09:25:02.765Z,390
2018-09-01T09:26:12.075Z,375
2018-09-01T09:27:21.917Z,395
2018-09-01T09:28:31.224Z,395
2018-09-01T09:29:41.340Z,390
2018-09-01T09:30:51.189Z,390
2018-09-01T09:32:01.038Z,405
2018-09-01T09:33:10.610Z,395
2018-09-01T09:34:19.916Z,395
2018-09-01T09:35:29.769Z,420
2018-09-01T09:36:39.347Z,435
2018-09-01T09:37:49.209Z,425
2018-09-01T09:38:58.514Z,450
2018-09-01T09:40:08.089Z,460
2018-09-01T09:41:17.934Z,450
2018-09-01T09:42:27.776Z,425
2018-09-01T09:43:37.623Z,415
2018-09-01T09:44:47.203Z,405
2018-09-01T09:45:55.968Z,400
2018-09-01T09:47:06.097Z,435
2018-09-01T09:48:15.738Z,435
2018-09-01T09:49:24.783Z,450
2018-09-01T09:50:34.634Z,460
2018-09-01T09:51:44.486Z,445
2018-09-01T09:52:54.677Z,450
2018-09-01T09:54:04.814Z,425
2018-09-01T09:55:14.126Z,420
2018-09-01T09:56:23.433Z,420
2018-09-01T09:57:33.014Z,395
2018-09-01T09:58:42.601Z,400
2018-09-01T09:59:52.452Z,425
2018-09-01T10:01:02.341Z,430
2018-09-01T10:02:11.864Z,430
2018-09-01T10:03:21.989Z,420
2018-09-01T10:04:31.080Z,400
2018-09-01T10:05:41.359Z,385
2018-09-01T10:06:50.954Z,375
2018-09-01T10:08:01.068Z,380
2018-09-01T10:09:10.665Z,380
2018-09-01T10:10:20.241Z,380
2018-09-01T10:11:30.367Z,395
2018-09-01T10:12:40.477Z,405
2018-09-01T10:13:49.781Z,405
2018-09-01T10:14:59.361Z,385
2018-09-01T10:16:09.412Z,400
2018-09-01T10:17:18.720Z,400
2018-09-01T10:18:28.844Z,410
2018-09-01T10:19:38.693Z,415
2018-09-01T10:20:48.491Z,425
2018-09-01T10:21:58.610Z,440
2018-09-01T10:23:08.781Z,460
2018-09-01T10:24:18.645Z,490
2018-09-01T10:25:28.227Z,520
2018-09-01T10:26:38.069Z,565
2018-09-01T10:27:47.929Z,605
2018-09-01T10:28:57.833Z,615
2018-09-01T10:30:07.953Z,595
2018-09-01T10:31:17.797Z,565
2018-09-01T10:32:27.374Z,555
2018-09-01T10:33:36.948Z,545
2018-09-01T10:34:46.870Z,535
2018-09-01T10:35:56.792Z,530
2018-09-01T10:37:06.647Z,520
2018-09-01T10:38:16.558Z,550
2018-09-01T10:39:26.414Z,540
2018-09-01T10:40:35.989Z,545
2018-09-01T10:41:45.296Z,515
2018-09-01T10:42:55.154Z,455
2018-09-01T10:44:04.730Z,435
2018-09-01T10:45:14.576Z,445
2018-09-01T10:46:24.474Z,460
2018-09-01T10:47:34.344Z,495
2018-09-01T10:48:44.458Z,475
2018-09-01T10:49:53.766Z,480
2018-09-01T10:51:03.391Z,480
2018-09-01T10:52:12.697Z,485
2018-09-01T10:53:22.544Z,495
2018-09-01T10:54:31.857Z,490
2018-09-01T10:55:41.157Z,500
2018-09-01T10:56:51.272Z,525
2018-09-01T10:58:01.124Z,515
2018-09-01T10:59:11.896Z,505
2018-09-01T11:00:21.580Z,495
2018-09-01T11:01:31.156Z,495
2018-09-01T11:02:40.462Z,455
2018-09-01T11:03:50.041Z,455
2018-09-01T11:04:59.897Z,455
2018-09-01T11:06:10.029Z,495
2018-09-01T11:07:19.612Z,500
2018-09-01T11:08:29.734Z,475
2018-09-01T11:09:39.586Z,455
2018-09-01T11:10:49.178Z,445
2018-09-01T11:11:58.216Z,440
2018-09-01T11:13:07.531Z,410
2018-09-01T11:14:17.658Z,400
2018-09-01T11:15:26.973Z,400
2018-09-01T11:16:36.572Z,390
2018-09-01T11:17:46.265Z,395
2018-09-01T11:18:56.215Z,415
2018-09-01T11:20:06.620Z,415
2018-09-01T11:21:16.500Z,415
2018-09-01T11:22:26.075Z,415
2018-09-01T11:23:35.930Z,405
2018-09-01T11:24:44.964Z,415
2018-09-01T11:25:54.007Z,430
2018-09-01T11:27:04.157Z,440
2018-09-01T11:28:14.795Z,455
2018-09-01T11:29:24.496Z,470
2018-09-01T11:30:34.078Z,480
2018-09-01T11:31:43.660Z,490
2018-09-01T11:32:52.982Z,505
2018-09-01T11:34:02.836Z,540
2018-09-01T11:35:11.874Z,560
2018-09-01T11:36:21.453Z,570
2018-09-01T11:37:31.299Z,560
2018-09-01T11:38:41.182Z,560
2018-09-01T11:39:51.030Z,580
2018-09-01T11:41:00.614Z,595
2018-09-01T11:42:09.653Z,600
2018-09-01T11:43:19.950Z,600
2018-09-01T11:44:30.063Z,595
2018-09-01T11:45:40.181Z,630
2018-09-01T11:46:50.305Z,610
2018-09-01T11:48:00.435Z,655
2018-09-01T11:49:10.287Z,675
2018-09-01T11:50:19.870Z,685
2018-09-01T11:51:29.714Z,680
2018-09-01T11:52:39.557Z,680
2018-09-01T11:53:49.413Z,700
2018-09-01T11:54:59.304Z,745
2018-09-01T11:56:08.881Z,820
2018-09-01T11:57:18.737Z,680
2018-09-01T11:58:28.698Z,680
2018-09-01T11:59:38.848Z,825
2018-09-01T12:00:49.037Z,685
2018-09-01T12:01:58.889Z,675
2018-09-01T12:03:08.469Z,690
2018-09-01T12:04:17.779Z,665
2018-09-01T12:05:27.634Z,695
2018-09-01T12:06:37.264Z,730
2018-09-01T12:07:46.836Z,790
2018-09-01T12:08:57.166Z,880
2018-09-01T12:10:07.401Z,880
2018-09-01T12:11:17.001Z,825
2018-09-01T12:12:26.837Z,1150
2018-09-01T12:13:36.420Z,875
2018-09-01T12:14:46.265Z,745
2018-09-01T12:15:55.634Z,715
2018-09-01T12:17:05.246Z,710
2018-09-01T12:18:14.877Z,810
2018-09-01T12:19:25.064Z,730
2018-09-01T12:20:34.639Z,685
2018-09-01T12:21:43.675Z,655
2018-09-01T12:22:53.803Z,640
2018-09-01T12:24:03.388Z,645
2018-09-01T12:25:12.971Z,655
2018-09-01T12:26:22.821Z,660
2018-09-01T12:27:32.675Z,650
2018-09-01T12:28:42.789Z,640
2018-09-01T12:29:51.881Z,645
2018-09-01T12:31:01.998Z,650
2018-09-01T12:32:11.310Z,675
2018-09-01T12:33:21.440Z,715
2018-09-01T12:34:31.290Z,770
2018-09-01T12:35:41.434Z,760
2018-09-01T12:36:51.551Z,740
2018-09-01T12:38:01.132Z,790
2018-09-01T12:39:10.718Z,865
2018-09-01T12:40:20.298Z,805
2018-09-01T12:41:30.419Z,725
2018-09-01T12:42:40.274Z,700
2018-09-01T12:43:50.123Z,695
2018-09-01T12:44:59.432Z,755
2018-09-01T12:46:08.473Z,885
2018-09-01T12:47:18.323Z,895
2018-09-01T12:48:28.448Z,785
2018-09-01T12:49:38.306Z,740
2018-09-01T12:50:47.618Z,710
2018-09-01T12:51:57.472Z,745
2018-09-01T12:53:07.227Z,790
2018-09-01T12:54:17.415Z,840
2018-09-01T12:55:26.995Z,870
2018-09-01T12:56:36.571Z,875
2018-09-01T12:57:45.609Z,830
2018-09-01T12:58:55.725Z,800
2018-09-01T13:00:05.578Z,910
2018-09-01T13:01:15.160Z,925
2018-09-01T13:02:25.012Z,875
2018-09-01T13:03:35.135Z,890
2018-09-01T13:04:44.724Z,915
2018-09-01T13:05:54.035Z,860
2018-09-01T13:07:03.880Z,840
2018-09-01T13:08:14.006Z,880
2018-09-01T13:09:23.583Z,845
2018-09-01T13:10:33.698Z,855
2018-09-01T13:11:43.552Z,915
2018-09-01T13:12:53.132Z,1025
2018-09-01T13:14:02.721Z,850
2018-09-01T13:15:12.847Z,860
2018-09-01T13:16:22.435Z,830
2018-09-01T13:17:32.287Z,820
2018-09-01T13:18:41.601Z,1400
2018-09-01T13:19:51.405Z,975
2018-09-01T13:21:00.984Z,910
2018-09-01T13:22:10.900Z,1070
2018-09-01T13:23:21.026Z,1010
2018-09-01T13:24:30.605Z,860
2018-09-01T13:25:40.303Z,840
2018-09-01T13:26:50.147Z,740
2018-09-01T13:28:00.330Z,740
2018-09-01T13:29:10.185Z,770
2018-09-01T13:30:19.768Z,795
2018-09-01T13:31:29.611Z,760
2018-09-01T13:32:39.198Z,750
2018-09-01T13:33:49.056Z,710
2018-09-01T13:34:58.906Z,695
2018-09-01T13:36:08.521Z,660
2018-09-01T13:37:18.669Z,630
2018-09-01T13:38:28.579Z,590
2018-09-01T13:39:37.888Z,580
2018-09-01T13:40:47.474Z,550
2018-09-01T13:41:56.787Z,545
2018-09-01T13:43:06.368Z,530
2018-09-01T13:44:15.691Z,500
2018-09-01T13:45:25.593Z,515
2018-09-01T13:46:35.167Z,565
2018-09-01T13:47:45.024Z,570
2018-09-01T13:48:54.332Z,555
2018-09-01T13:50:04.183Z,565
2018-09-01T13:51:13.545Z,540
2018-09-01T13:52:23.410Z,560
2018-09-01T13:53:33.260Z,510
2018-09-01T13:54:42.888Z,525
2018-09-01T13:55:52.738Z,520
2018-09-01T13:57:02.325Z,505
2018-09-01T13:58:12.450Z,505
2018-09-01T13:59:22.028Z,550
2018-09-01T14:00:31.613Z,590
2018-09-01T14:01:40.932Z,610
2018-09-01T14:02:51.051Z,595
2018-09-01T14:04:00.906Z,560
2018-09-01T14:05:11.034Z,565
2018-09-01T14:06:20.071Z,585
2018-09-01T14:07:29.113Z,625
2018-09-01T14:08:39.013Z,670
2018-09-01T14:09:48.593Z,660
2018-09-01T14:10:58.441Z,655
2018-09-01T14:12:08.555Z,665
2018-09-01T14:13:18.136Z,660
2018-09-01T14:14:28.473Z,665
2018-09-01T14:15:38.618Z,650
2018-09-01T14:16:48.462Z,695
2018-09-01T14:17:58.048Z,810
2018-09-01T14:19:07.356Z,895
2018-09-01T14:20:17.538Z,840
2018-09-01T14:21:27.115Z,770
2018-09-01T14:22:36.697Z,740
2018-09-01T14:23:46.557Z,775
2018-09-01T14:24:56.133Z,1110
2018-09-01T14:26:05.986Z,1165
2018-09-01T14:27:15.859Z,835
2018-09-01T14:28:25.701Z,750
2018-09-01T14:29:35.557Z,860
2018-09-01T14:30:45.410Z,1665
2018-09-01T14:31:55.276Z,2370
2018-09-01T14:33:05.453Z,3075
2018-09-01T14:34:16.107Z,3020
2018-09-01T14:35:26.609Z,2925
2018-09-01T14:36:37.128Z,2880
2018-09-01T14:37:47.191Z,2825
2018-09-01T14:38:57.313Z,2760
2018-09-01T14:40:06.893Z,2885
2018-09-01T14:41:16.205Z,2860
2018-09-01T14:42:26.061Z,2855
2018-09-01T14:43:35.647Z,2930
2018-09-01T14:44:44.692Z,2980
2018-09-01T14:45:54.298Z,3015
2018-09-01T14:47:04.430Z,3005
2018-09-01T14:48:14.097Z,3050
2018-09-01T14:49:23.920Z,1670
2018-09-01T14:50:33.236Z,1295
2018-09-01T14:51:43.371Z,1965
2018-09-01T14:52:53.500Z,2750
2018-09-01T14:54:03.369Z,3015
2018-09-01T14:55:13.284Z,3110
2018-09-01T14:56:23.410Z,3290
2018-09-01T14:57:33.276Z,3090
2018-09-01T14:58:43.137Z,645
2018-09-01T14:59:52.996Z,695
2018-09-01T15:01:02.862Z,3115
2018-09-01T15:02:12.731Z,3155
2018-09-01T15:03:22.859Z,3165
2018-09-01T15:04:32.987Z,3035
2018-09-01T15:05:42.853Z,3110
2018-09-01T15:06:52.762Z,2195
2018-09-01T15:08:02.349Z,3060
2018-09-01T15:09:11.952Z,700
2018-09-01T15:10:22.146Z,620
2018-09-01T15:11:32.094Z,635
2018-09-01T15:12:41.689Z,670
2018-09-01T15:13:51.286Z,2755
2018-09-01T15:15:00.602Z,2580
2018-09-01T15:16:09.652Z,635
2018-09-01T15:17:19.514Z,630
2018-09-01T15:18:29.097Z,2395
2018-09-01T15:19:38.959Z,2735
2018-09-01T15:20:48.543Z,2565
2018-09-01T15:21:58.128Z,2065
2018-09-01T15:23:08.251Z,430
2018-09-01T15:24:17.835Z,585
2018-09-01T15:25:27.154Z,1480
2018-09-01T15:26:37.280Z,585
2018-09-01T15:27:47.133Z,355
2018-09-01T15:28:56.729Z,325
2018-09-01T15:30:06.867Z,310
2018-09-01T15:31:16.993Z,315
2018-09-01T15:32:26.710Z,280
2018-09-01T15:33:36.888Z,260
2018-09-01T15:34:46.469Z,250
2018-09-01T15:35:56.328Z,235
2018-09-01T15:37:06.180Z,230
2018-09-01T15:38:16.029Z,225
2018-09-01T15:39:26.171Z,215
2018-09-01T15:40:35.489Z,215
2018-09-01T15:41:45.334Z,205
2018-09-01T15:42:54.925Z,205
2018-09-01T15:44:05.048Z,205
2018-09-01T15:45:14.634Z,205
2018-09-01T15:46:24.488Z,205
2018-09-01T15:47:34.615Z,205
2018-09-01T15:48:44.734Z,210
2018-09-01T15:49:54.323Z,210
2018-09-01T15:51:04.172Z,215
2018-09-01T15:52:13.488Z,210
2018-09-01T15:53:23.338Z,215
2018-09-01T15:54:32.381Z,220
2018-09-01T15:55:41.965Z,225
2018-09-01T15:56:51.275Z,225
2018-09-01T15:58:00.853Z,220
2018-09-01T15:59:10.165Z,225
2018-09-01T16:00:19.476Z,225
2018-09-01T16:01:29.334Z,240
2018-09-01T16:02:38.922Z,250
2018-09-01T16:03:49.721Z,265
2018-09-01T16:04:59.591Z,275
2018-09-01T16:06:09.172Z,275
2018-09-01T16:07:19.021Z,275
2018-09-01T16:08:28.608Z,275
2018-09-01T16:09:38.188Z,285
2018-09-01T16:10:47.230Z,295
2018-09-01T16:11:56.815Z,310
2018-09-01T16:13:06.120Z,345
2018-09-01T16:14:16.239Z,415
2018-09-01T16:15:26.438Z,440
2018-09-01T16:16:35.745Z,405
2018-09-01T16:17:45.050Z,415
2018-09-01T16:18:54.896Z,425